Fall Lake, Minnesota
Current Conditions -  °F | °C
As of 11:53 AM on Tuesday 21 Oct 2014 (Local Time) from KELO Reporting Station
Overcast Overcast  
Wind Chill: 32°   Ceiling: 1400
Heat Index: 39°   Visibility: 10mi
Dew Point: 34°   Wind: 12mph
Humidity: 81%   Direction: 140°SE
Pressure: 30.25"   Gusts: NA
Location:  47.9252°N, 91.7976°W
Report Text: KELO 211653Z AUTO 14010KT 10SM OVC014 04/01 A3025 RMK AO2
Loading
Personal Weather Stations






























Interactive Weather Map
Tropical Storm Tracking
New forecast layout! Learn more

10-Day Weather Forecast

Advertisements
Track Severe Weather on mobile